Time;durP1;ratioP1;P1;durP2;ratioP2;P2;SDS_P1;SDS_P2;PMS_P1;PMS_P2;Temp;Humidity;BMP_temperature;BMP_pressure;BME280_temperature;BME280_humidity;BME280_pressure;Samples;Min_cycle;Max_cycle;Signal;HPM_P1;HPM_P2
2022/10/19 00:01:40;;;;;;;4.10;2.92;;;;;;;10.02;83.63;98943.34;5085138;28;20309;-66
2022/10/19 00:04:05;;;;;;;3.60;2.78;;;;;;;9.96;82.91;98928.84;5102617;28;20085;-64
2022/10/19 00:06:34;;;;;;;3.95;2.80;;;;;;;9.95;82.59;98939.25;5085792;28;20031;-65
2022/10/19 00:09:05;;;;;;;5.20;2.60;;;;;;;9.90;82.43;98929.00;5098187;28;20054;-66
2022/10/19 00:11:32;;;;;;;3.88;2.83;;;;;;;9.92;82.10;98926.38;5096821;28;20020;-66
2022/10/19 00:13:59;;;;;;;4.30;2.92;;;;;;;9.95;82.17;98928.91;5086047;28;20028;-66
2022/10/19 00:16:27;;;;;;;5.50;3.22;;;;;;;9.88;82.83;98912.72;5085695;28;20020;-66
2022/10/19 00:18:57;;;;;;;4.53;2.70;;;;;;;10.02;82.70;98923.47;5085336;28;20087;-65
2022/10/19 00:21:22;;;;;;;4.32;2.83;;;;;;;10.03;82.80;98919.13;5102251;28;20068;-66
2022/10/19 00:23:48;;;;;;;3.47;3.08;;;;;;;9.99;82.81;98914.94;5093767;28;20036;-66
2022/10/19 00:26:14;;;;;;;5.55;2.80;;;;;;;9.97;82.09;98896.88;5085621;28;20095;-66
2022/10/19 00:28:41;;;;;;;4.25;3.00;;;;;;;10.05;82.48;98903.56;5088041;28;20040;-66
2022/10/19 00:31:16;;;;;;;8.70;3.10;;;;;;;9.93;82.09;98891.88;5105721;28;20051;-66
2022/10/19 00:33:45;;;;;;;3.42;2.63;;;;;;;10.01;82.50;98906.25;5097480;28;20031;-66
2022/10/19 00:36:17;;;;;;;5.55;2.97;;;;;;;9.98;82.56;98893.41;5090980;28;20036;-66
2022/10/19 00:38:43;;;;;;;5.30;3.08;;;;;;;10.04;82.97;98888.94;5094739;28;20268;-65
2022/10/19 00:41:08;;;;;;;5.28;3.65;;;;;;;10.05;82.27;98885.44;5093861;28;20097;-65
2022/10/19 00:43:55;;;;;;;5.82;3.13;;;;;;;10.07;81.81;98884.50;5101126;28;20024;-64
2022/10/19 00:46:21;;;;;;;6.28;3.60;;;;;;;10.09;82.23;98885.31;5085087;28;20312;-65
2022/10/19 00:48:49;;;;;;;4.18;3.22;;;;;;;10.06;82.20;98874.22;5104860;28;20037;-66
2022/10/19 00:51:14;;;;;;;4.55;3.30;;;;;;;10.09;82.47;98880.16;5090168;28;20103;-65
2022/10/19 00:53:41;;;;;;;6.13;2.95;;;;;;;10.12;82.92;98877.47;5091416;28;20364;-65
2022/10/19 00:56:11;;;;;;;3.83;2.95;;;;;;;10.08;82.37;98867.28;5096422;28;20043;-65
2022/10/19 00:58:37;;;;;;;3.22;2.67;;;;;;;10.06;82.87;98864.72;5099516;28;20035;-66
2022/10/19 01:01:04;;;;;;;4.75;2.90;;;;;;;10.11;82.49;98873.16;5104884;28;20028;-65
2022/10/19 01:03:31;;;;;;;4.32;2.90;;;;;;;10.11;83.67;98880.94;5087879;28;20062;-65
2022/10/19 01:05:56;;;;;;;5.38;2.72;;;;;;;10.12;84.07;98880.03;5085756;28;20036;-64
2022/10/19 01:08:22;;;;;;;3.55;2.65;;;;;;;10.09;83.31;98881.88;5084954;28;20033;-64
2022/10/19 01:11:00;;;;;;;3.40;2.75;;;;;;;10.07;83.50;98874.16;5100113;28;20027;-65
2022/10/19 01:13:37;;;;;;;5.03;3.53;;;;;;;10.06;83.50;98881.97;5103754;28;20024;-65
2022/10/19 01:16:19;;;;;;;4.00;3.08;;;;;;;10.02;83.61;98879.50;5084771;28;20044;-65
2022/10/19 01:19:26;;;;;;;4.60;2.73;;;;;;;10.04;83.22;98876.84;5102097;28;20051;-66
2022/10/19 01:22:38;;;;;;;5.05;3.22;;;;;;;10.06;83.09;98879.38;5055942;28;20423;-65
2022/10/19 01:25:09;;;;;;;4.78;3.38;;;;;;;10.05;83.66;98869.94;5068237;28;20037;-64
2022/10/19 01:28:03;;;;;;;2.92;2.63;;;;;;;10.01;83.40;98858.84;5102423;28;20157;-64
2022/10/19 01:30:58;;;;;;;3.17;2.88;;;;;;;10.04;83.52;98869.09;5055578;28;20037;-64
2022/10/19 01:34:02;;;;;;;5.55;3.00;;;;;;;9.94;84.41;98870.28;5100441;28;20671;-64
2022/10/19 01:36:30;;;;;;;4.22;3.08;;;;;;;10.02;84.66;98887.25;5067872;28;20048;-64
2022/10/19 01:39:08;;;;;;;3.25;2.80;;;;;;;10.03;84.07;98885.50;5096560;28;20128;-65
2022/10/19 01:41:48;;;;;;;3.10;2.80;;;;;;;10.06;83.68;98877.66;5095302;28;20024;-64
2022/10/19 01:44:25;;;;;;;4.35;2.97;;;;;;;10.11;83.39;98869.75;5090343;28;20052;-65
2022/10/19 01:47:00;;;;;;;3.30;3.00;;;;;;;10.11;83.44;98865.41;5099879;28;20028;-64
2022/10/19 01:49:43;;;;;;;3.92;3.08;;;;;;;10.01;83.44;98858.84;5084111;28;20099;-64
2022/10/19 01:52:12;;;;;;;3.90;3.10;;;;;;;9.87;83.15;98850.69;5084252;28;20024;-64
2022/10/19 01:54:42;;;;;;;3.17;2.88;;;;;;;9.87;83.54;98840.34;5101998;28;20033;-64
2022/10/19 01:57:11;;;;;;;3.35;2.80;;;;;;;9.82;83.05;98833.59;5090223;28;20340;-65
2022/10/19 01:59:38;;;;;;;3.63;3.10;;;;;;;9.79;83.30;98828.50;5083804;28;20024;-65
2022/10/19 02:02:07;;;;;;;3.15;2.72;;;;;;;9.66;83.75;98829.78;5088539;28;20224;-64
2022/10/19 02:04:35;;;;;;;3.55;2.70;;;;;;;9.64;84.23;98818.66;5102219;28;20351;-65
2022/10/19 02:07:02;;;;;;;4.97;2.83;;;;;;;9.77;83.19;98824.28;5083660;28;20366;-64
2022/10/19 02:09:27;;;;;;;4.07;3.13;;;;;;;9.64;83.97;98814.31;5100064;28;20331;-64
2022/10/19 02:11:57;;;;;;;4.03;3.00;;;;;;;9.63;84.52;98823.00;5092284;28;20039;-65
2022/10/19 02:14:30;;;;;;;4.30;2.90;;;;;;;9.81;84.06;98825.88;5090950;28;20074;-66
2022/10/19 02:17:08;;;;;;;6.15;3.03;;;;;;;9.68;84.37;98808.16;5100201;28;20088;-65
2022/10/19 02:19:33;;;;;;;5.45;3.20;;;;;;;9.63;84.18;98797.16;5083725;28;20134;-65
2022/10/19 02:21:59;;;;;;;7.50;3.50;;;;;;;9.66;84.58;98791.88;5103959;28;20055;-65
2022/10/19 02:24:25;;;;;;;3.70;3.03;;;;;;;9.80;83.92;98795.75;5087764;28;20080;-66
2022/10/19 02:26:51;;;;;;;4.25;3.65;;;;;;;9.88;83.60;98793.75;5083461;28;20047;-66
2022/10/19 02:29:17;;;;;;;4.70;3.70;;;;;;;9.89;83.87;98797.16;5089359;28;20027;-66
2022/10/19 02:31:44;;;;;;;5.10;4.57;;;;;;;9.70;84.32;98782.25;5102005;28;20028;-64
2022/10/19 02:34:10;;;;;;;8.20;5.78;;;;;;;9.74;83.90;98791.59;5098321;28;20028;-66
2022/10/19 02:36:35;;;;;;;7.60;6.72;;;;;;;9.68;84.05;98790.06;5086218;28;20103;-66
2022/10/19 02:39:02;;;;;;;6.80;6.20;;;;;;;9.74;83.51;98791.59;5094581;28;20043;-66
2022/10/19 02:41:52;;;;;;;8.63;6.75;;;;;;;9.62;83.72;98776.47;5095839;28;20052;-66
2022/10/19 02:44:30;;;;;;;6.07;5.50;;;;;;;9.58;84.24;98773.16;5089185;28;20065;-66
2022/10/19 02:47:12;;;;;;;7.10;5.60;;;;;;;9.66;84.14;98767.75;5100253;28;20036;-66
2022/10/19 02:49:38;;;;;;;7.05;5.07;;;;;;;9.77;83.61;98781.16;5084169;28;20021;-66
2022/10/19 02:52:06;;;;;;;5.50;4.05;;;;;;;9.67;84.60;98777.19;5103647;28;20185;-66
2022/10/19 02:54:32;;;;;;;6.85;4.20;;;;;;;9.47;85.65;98776.09;5102276;28;20228;-64
2022/10/19 02:56:58;;;;;;;5.72;3.72;;;;;;;9.41;86.11;98773.72;5091279;28;20351;-65
2022/10/19 02:59:24;;;;;;;7.18;3.72;;;;;;;9.47;85.72;98773.50;5082985;28;20028;-64
2022/10/19 03:01:50;;;;;;;5.90;3.65;;;;;;;9.40;86.40;98764.25;5085171;28;20052;-65
2022/10/19 03:04:16;;;;;;;7.25;4.00;;;;;;;9.40;87.30;98769.41;5102653;28;20232;-65
2022/10/19 03:06:41;;;;;;;5.40;3.55;;;;;;;9.44;87.05;98770.19;5084378;28;20025;-66
2022/10/19 03:09:08;;;;;;;6.97;4.80;;;;;;;9.19;87.29;98765.75;5095669;28;20054;-64
2022/10/19 03:11:34;;;;;;;5.70;4.45;;;;;;;9.22;87.35;98749.31;5095077;28;20044;-65
2022/10/19 03:13:59;;;;;;;7.40;5.30;;;;;;;9.04;88.45;98758.50;5086170;28;20362;-65
2022/10/19 03:16:25;;;;;;;9.02;5.43;;;;;;;8.96;88.71;98763.88;5103322;28;20028;-65
2022/10/19 03:18:51;;;;;;;7.97;5.28;;;;;;;8.90;89.24;98743.41;5084245;28;20213;-65
2022/10/19 03:21:17;;;;;;;8.20;6.20;;;;;;;9.00;89.68;98754.31;5096937;28;20028;-65
2022/10/19 03:23:43;;;;;;;13.30;7.03;;;;;;;8.87;89.83;98751.25;5098126;28;20311;-66
2022/10/19 03:26:12;;;;;;;14.00;7.90;;;;;;;8.71;90.60;98749.13;5098454;28;20028;-66
2022/10/19 03:28:38;;;;;;;11.77;6.88;;;;;;;8.68;91.12;98750.94;5083144;28;20037;-66
2022/10/19 03:31:05;;;;;;;10.55;7.43;;;;;;;8.76;91.58;98752.41;5103120;28;20061;-66
2022/10/19 03:33:30;;;;;;;11.52;8.35;;;;;;;8.70;91.45;98742.25;5102913;28;20027;-66
2022/10/19 03:36:20;;;;;;;7.70;6.38;;;;;;;8.79;91.55;98752.34;5091954;28;20032;-65
2022/10/19 03:38:45;;;;;;;8.80;6.93;;;;;;;8.87;90.70;98752.09;5092190;28;20046;-65
2022/10/19 03:41:11;;;;;;;6.78;5.45;;;;;;;9.02;90.55;98742.19;5105176;28;20024;-65
2022/10/19 03:43:37;;;;;;;5.28;4.65;;;;;;;8.98;89.21;98744.03;5106839;28;20028;-65
2022/10/19 03:46:03;;;;;;;6.50;4.45;;;;;;;8.95;89.45;98736.38;5086730;28;20028;-65
2022/10/19 03:48:29;;;;;;;6.35;5.07;;;;;;;9.14;88.75;98736.66;5086449;28;20361;-65
2022/10/19 03:51:04;;;;;;;8.25;4.32;;;;;;;9.05;88.56;98717.13;5097250;28;20320;-65
2022/10/19 03:53:30;;;;;;;7.28;4.32;;;;;;;9.25;88.77;98738.91;5099148;28;20028;-66
2022/10/19 03:56:13;;;;;;;6.18;4.68;;;;;;;8.97;88.51;98730.25;5088868;28;20033;-64
2022/10/19 03:58:41;;;;;;;7.75;5.28;;;;;;;8.86;89.79;98722.00;5089121;28;20020;-66
2022/10/19 04:01:12;;;;;;;8.45;5.72;;;;;;;8.74;90.10;98706.91;5106707;28;20089;-64
2022/10/19 04:03:38;;;;;;;9.38;5.95;;;;;;;9.03;90.14;98713.75;5089685;28;20344;-65
2022/10/19 04:06:10;;;;;;;6.63;5.10;;;;;;;9.10;90.51;98710.06;5110422;28;20028;-65
2022/10/19 04:08:35;;;;;;;6.22;4.45;;;;;;;8.95;89.81;98710.53;5086067;28;20051;-64
2022/10/19 04:11:07;;;;;;;7.05;4.75;;;;;;;9.01;90.45;98701.75;5089507;28;20032;-65
2022/10/19 04:13:34;;;;;;;8.55;4.90;;;;;;;9.18;89.37;98714.16;5105372;28;20055;-65
2022/10/19 04:16:00;;;;;;;7.32;5.00;;;;;;;8.95;89.16;98700.22;5086509;28;20392;-65
2022/10/19 04:18:25;;;;;;;7.68;5.15;;;;;;;8.87;89.30;98690.13;5085723;28;20036;-65
2022/10/19 04:20:59;;;;;;;9.30;6.38;;;;;;;8.89;90.18;98690.09;5095904;28;20077;-65
2022/10/19 04:23:34;;;;;;;7.28;5.95;;;;;;;8.89;89.51;98677.16;5100139;28;20031;-65
2022/10/19 04:26:06;;;;;;;7.63;6.38;;;;;;;8.71;89.81;98665.69;5085038;28;20039;-65
2022/10/19 04:28:33;;;;;;;7.70;6.38;;;;;;;8.46;90.54;98681.88;5086214;28;20024;-64
2022/10/19 04:31:03;;;;;;;7.03;6.32;;;;;;;8.40;91.33;98662.25;5105151;28;20032;-66
2022/10/19 04:33:29;;;;;;;7.53;6.60;;;;;;;8.71;90.47;98670.84;5102921;28;20030;-64
2022/10/19 04:36:02;;;;;;;7.70;6.78;;;;;;;8.64;90.55;98676.19;5095197;28;20063;-64
2022/10/19 04:38:28;;;;;;;8.35;6.75;;;;;;;8.77;90.19;98679.25;5092156;28;20307;-64
2022/10/19 04:40:55;;;;;;;7.50;6.70;;;;;;;8.73;90.79;98682.81;5103817;28;20016;-64
2022/10/19 04:43:21;;;;;;;8.20;7.40;;;;;;;8.73;89.40;98680.22;5085343;28;20135;-64
2022/10/19 04:45:47;;;;;;;8.55;6.97;;;;;;;8.78;89.52;98678.34;5091885;28;20032;-65
2022/10/19 04:48:12;;;;;;;8.52;7.65;;;;;;;8.65;89.50;98689.94;5096343;28;20058;-65
2022/10/19 04:50:38;;;;;;;7.75;6.78;;;;;;;8.72;89.11;98685.44;5102305;28;20031;-66
2022/10/19 04:53:03;;;;;;;7.50;6.78;;;;;;;8.83;88.54;98683.38;5102512;28;20277;-65
2022/10/19 04:55:29;;;;;;;7.55;6.82;;;;;;;8.76;87.84;98684.44;5101284;28;20032;-67
2022/10/19 04:57:55;;;;;;;8.15;7.28;;;;;;;8.57;89.57;98674.69;5086781;28;20051;-65
2022/10/19 05:00:20;;;;;;;8.55;6.75;;;;;;;8.68;88.97;98666.63;5092620;28;20066;-66
2022/10/19 05:02:46;;;;;;;9.40;7.68;;;;;;;8.78;88.60;98672.34;5095912;28;20378;-68
2022/10/19 05:05:13;;;;;;;8.73;7.75;;;;;;;8.65;87.76;98677.03;5088790;28;20028;-65
2022/10/19 05:07:39;;;;;;;9.23;7.57;;;;;;;8.60;87.99;98676.31;5105300;28;20024;-64
2022/10/19 05:10:05;;;;;;;9.35;8.18;;;;;;;8.78;88.63;98667.19;5084572;28;20062;-65
2022/10/19 05:12:31;;;;;;;7.88;7.07;;;;;;;8.79;88.25;98669.72;5099613;28;20028;-64
2022/10/19 05:14:57;;;;;;;9.80;8.25;;;;;;;8.61;88.59;98649.63;5094922;28;20047;-65
2022/10/19 05:17:22;;;;;;;10.55;8.32;;;;;;;8.66;87.76;98662.41;5084444;28;20028;-64
2022/10/19 05:19:48;;;;;;;9.13;8.05;;;;;;;8.66;89.23;98663.22;5084897;28;20020;-66
2022/10/19 05:22:13;;;;;;;10.90;8.27;;;;;;;8.64;88.88;98665.84;5102548;28;20028;-64
2022/10/19 05:24:39;;;;;;;8.98;8.02;;;;;;;8.61;89.56;98660.78;5100313;28;20028;-65
2022/10/19 05:27:04;;;;;;;10.68;7.63;;;;;;;8.64;88.12;98658.13;5097260;28;20317;-64
2022/10/19 05:29:32;;;;;;;8.27;7.25;;;;;;;8.79;87.73;98661.97;5098115;28;20028;-63
2022/10/19 05:31:58;;;;;;;8.18;7.32;;;;;;;8.84;87.47;98655.84;5086523;28;20095;-64
2022/10/19 05:34:23;;;;;;;9.48;7.30;;;;;;;8.72;87.90;98662.19;5104368;28;20201;-64
2022/10/19 05:36:49;;;;;;;8.00;6.25;;;;;;;8.63;87.51;98653.84;5104669;28;20210;-64
2022/10/19 05:39:16;;;;;;;8.90;7.25;;;;;;;8.67;88.05;98659.75;5091753;28;20032;-64
2022/10/19 05:41:43;;;;;;;6.30;5.70;;;;;;;8.65;87.14;98661.56;5092809;28;20077;-64
2022/10/19 05:44:17;;;;;;;7.93;6.10;;;;;;;8.40;87.72;98635.59;5099948;28;20024;-63
2022/10/19 05:46:43;;;;;;;6.97;6.18;;;;;;;8.43;88.06;98651.81;5082659;28;20241;-65
2022/10/19 05:49:10;;;;;;;7.20;6.28;;;;;;;8.68;88.28;98652.84;5103534;28;20024;-64
2022/10/19 05:51:36;;;;;;;6.28;5.68;;;;;;;8.57;87.97;98653.19;5099510;28;20035;-64
2022/10/19 05:54:02;;;;;;;8.63;5.45;;;;;;;8.41;88.28;98657.94;5103244;28;20051;-64
2022/10/19 05:56:29;;;;;;;7.43;5.70;;;;;;;8.59;87.79;98647.09;5104278;28;20032;-64
2022/10/19 05:58:57;;;;;;;6.70;6.00;;;;;;;8.68;87.22;98652.84;5102732;28;20255;-64
2022/10/19 06:01:23;;;;;;;9.35;5.55;;;;;;;8.33;89.23;98650.41;5097749;28;20040;-64
2022/10/19 06:03:53;;;;;;;7.93;5.45;;;;;;;8.35;87.87;98634.88;5085641;28;20051;-64
2022/10/19 06:06:20;;;;;;;8.00;5.88;;;;;;;8.56;88.93;98643.75;5096762;28;20032;-64
2022/10/19 06:08:46;;;;;;;7.57;5.60;;;;;;;8.66;88.72;98645.16;5095582;28;20036;-64
2022/10/19 06:11:15;;;;;;;8.00;5.38;;;;;;;8.67;87.29;98653.78;5087251;28;20030;-64
2022/10/19 06:13:42;;;;;;;9.35;5.13;;;;;;;8.55;88.61;98652.38;5102891;28;20125;-63
2022/10/19 06:16:09;;;;;;;8.73;5.53;;;;;;;8.36;89.16;98647.75;5084088;28;20371;-65
2022/10/19 06:18:36;;;;;;;6.40;4.93;;;;;;;8.35;89.14;98643.50;5083381;28;20028;-63
2022/10/19 06:21:03;;;;;;;6.43;4.55;;;;;;;7.99;89.42;98645.38;5093834;28;20032;-65
2022/10/19 06:23:30;;;;;;;6.28;3.42;;;;;;;8.17;89.67;98649.19;5096938;28;20032;-65
2022/10/19 06:25:56;;;;;;;5.45;4.57;;;;;;;8.17;89.83;98638.88;5102709;28;20094;-64
2022/10/19 06:28:21;;;;;;;5.70;4.65;;;;;;;8.23;89.96;98643.84;5083627;28;20438;-65
2022/10/19 06:30:47;;;;;;;7.15;4.88;;;;;;;8.24;89.56;98638.63;5099948;28;20039;-65
2022/10/19 06:33:13;;;;;;;5.13;4.50;;;;;;;8.13;90.06;98633.75;5098609;28;20032;-65
2022/10/19 06:35:41;;;;;;;6.80;4.35;;;;;;;8.30;89.65;98642.75;5103688;28;20055;-65
2022/10/19 06:38:07;;;;;;;7.15;4.53;;;;;;;8.40;88.82;98646.75;5101073;28;20332;-65
2022/10/19 06:40:34;;;;;;;6.45;4.63;;;;;;;8.32;88.51;98643.56;5083341;28;20087;-65
2022/10/19 06:42:59;;;;;;;4.43;4.03;;;;;;;8.48;88.08;98637.97;5101692;28;20031;-65
2022/10/19 06:45:25;;;;;;;5.70;4.65;;;;;;;8.62;87.71;98640.97;5089210;28;20089;-67
2022/10/19 06:47:50;;;;;;;5.15;4.60;;;;;;;8.57;87.67;98632.56;5094957;28;20056;-65
2022/10/19 06:50:16;;;;;;;6.47;4.53;;;;;;;8.36;87.98;98632.25;5087155;28;20081;-66
2022/10/19 06:52:42;;;;;;;6.85;4.82;;;;;;;8.32;89.01;98627.25;5103493;28;20027;-65
2022/10/19 06:55:08;;;;;;;7.85;4.88;;;;;;;8.44;88.35;98614.84;5084185;28;20028;-64
2022/10/19 06:57:34;;;;;;;7.35;5.30;;;;;;;8.50;86.31;98620.72;5097790;28;20024;-65
2022/10/19 07:00:00;;;;;;;5.47;4.20;;;;;;;8.41;86.72;98624.41;5093462;28;20024;-65
2022/10/19 07:02:25;;;;;;;5.45;4.50;;;;;;;8.64;86.51;98628.91;5088195;28;20312;-66
2022/10/19 07:04:51;;;;;;;7.60;5.00;;;;;;;8.60;86.45;98622.97;5096451;28;20024;-66
2022/10/19 07:07:17;;;;;;;5.68;4.88;;;;;;;8.55;86.74;98622.28;5103459;28;20082;-64
2022/10/19 07:09:42;;;;;;;5.30;4.40;;;;;;;8.62;85.91;98621.19;5087572;28;20328;-65
2022/10/19 07:12:09;;;;;;;6.55;4.38;;;;;;;8.77;86.29;98609.53;5094124;28;20370;-65
2022/10/19 07:14:38;;;;;;;6.00;4.47;;;;;;;8.61;86.11;98608.34;5096891;28;20092;-64
2022/10/19 07:17:05;;;;;;;5.50;5.00;;;;;;;8.76;85.82;98612.16;5087049;28;20316;-65
2022/10/19 07:19:31;;;;;;;6.32;5.07;;;;;;;8.56;86.19;98600.72;5087179;28;20091;-65
2022/10/19 07:21:57;;;;;;;8.38;5.78;;;;;;;8.62;87.13;98620.34;5104627;28;20028;-65
2022/10/19 07:24:23;;;;;;;6.00;5.40;;;;;;;8.57;86.79;98612.75;5099857;28;20090;-65
2022/10/19 07:26:48;;;;;;;13.48;7.00;;;;;;;8.53;87.58;98598.25;5099069;28;20032;-65
2022/10/19 07:29:14;;;;;;;10.63;6.78;;;;;;;8.56;86.84;98612.78;5089996;28;20039;-64
2022/10/19 07:31:40;;;;;;;8.23;6.93;;;;;;;8.61;87.07;98611.75;5105261;28;20170;-64
2022/10/19 07:34:06;;;;;;;7.40;5.80;;;;;;;8.80;86.77;98612.00;5105533;28;20070;-65
2022/10/19 07:36:34;;;;;;;9.43;7.57;;;;;;;8.62;86.77;98605.72;5092938;28;20037;-65
2022/10/19 07:39:01;;;;;;;8.77;7.40;;;;;;;8.69;87.07;98608.94;5096042;28;20320;-65
2022/10/19 07:41:26;;;;;;;11.40;7.53;;;;;;;8.61;86.98;98609.19;5102107;28;20032;-64
2022/10/19 07:43:52;;;;;;;9.98;7.00;;;;;;;8.66;87.70;98600.44;5105633;28;20024;-65
2022/10/19 07:46:21;;;;;;;10.07;7.88;;;;;;;8.74;87.76;98594.16;5086304;28;20039;-65
2022/10/19 07:48:47;;;;;;;9.90;7.00;;;;;;;8.87;86.95;98596.34;5102238;28;20028;-65
2022/10/19 07:51:15;;;;;;;8.73;7.55;;;;;;;8.55;88.06;98606.81;5095464;28;20028;-65
2022/10/19 07:53:41;;;;;;;10.50;8.13;;;;;;;8.63;87.80;98604.81;5093071;28;20035;-65
2022/10/19 07:56:11;;;;;;;9.70;7.63;;;;;;;8.49;89.26;98616.44;5106326;28;20028;-66
2022/10/19 07:58:37;;;;;;;10.70;7.82;;;;;;;8.34;90.15;98610.84;5106340;28;20024;-65
2022/10/19 08:01:08;;;;;;;13.73;8.68;;;;;;;8.45;89.57;98613.97;5106345;28;20054;-65
2022/10/19 08:03:35;;;;;;;12.00;8.15;;;;;;;8.51;90.13;98610.34;5091201;28;20063;-65
2022/10/19 08:06:09;;;;;;;13.77;8.55;;;;;;;8.32;90.93;98612.59;5095236;28;20031;-65
2022/10/19 08:08:36;;;;;;;10.38;8.43;;;;;;;8.42;90.32;98624.34;5100462;28;20092;-65
2022/10/19 08:11:20;;;;;;;16.30;9.00;;;;;;;8.43;91.23;98610.53;5085482;28;20327;-65
2022/10/19 08:13:46;;;;;;;13.63;8.85;;;;;;;8.35;91.78;98617.69;5106334;28;20043;-65
2022/10/19 08:16:23;;;;;;;14.45;9.35;;;;;;;8.25;92.14;98624.84;5087049;28;20032;-65
2022/10/19 08:18:49;;;;;;;11.35;8.02;;;;;;;8.22;91.47;98611.19;5085655;28;20029;-64
2022/10/19 08:21:15;;;;;;;14.52;8.43;;;;;;;8.39;91.37;98616.69;5096809;28;20077;-64
2022/10/19 08:23:40;;;;;;;15.93;8.02;;;;;;;8.39;91.63;98615.84;5098190;28;20213;-65
2022/10/19 08:26:06;;;;;;;10.85;8.45;;;;;;;8.45;90.87;98615.69;5104211;28;20039;-65
2022/10/19 08:28:32;;;;;;;10.93;8.25;;;;;;;8.24;92.07;98612.00;5084731;28;20035;-65
2022/10/19 08:30:57;;;;;;;13.95;8.57;;;;;;;8.35;91.42;98604.78;5101472;28;20036;-65
2022/10/19 08:33:25;;;;;;;10.60;7.55;;;;;;;8.26;91.79;98599.91;5102001;28;20212;-65
2022/10/19 08:35:52;;;;;;;11.50;8.52;;;;;;;8.26;92.46;98598.16;5098253;28;20112;-65
2022/10/19 08:38:19;;;;;;;10.63;7.68;;;;;;;8.37;91.63;98600.41;5086082;28;20056;-64
2022/10/19 08:40:45;;;;;;;9.50;7.47;;;;;;;8.33;91.27;98598.81;5085420;28;20048;-64
2022/10/19 08:43:32;;;;;;;11.35;7.35;;;;;;;8.16;91.95;98593.31;5104075;28;20028;-65
2022/10/19 08:46:29;;;;;;;12.48;7.93;;;;;;;8.12;93.07;98608.88;5088531;28;20028;-65
2022/10/19 08:48:55;;;;;;;11.85;8.32;;;;;;;8.15;92.97;98609.69;5098990;28;20039;-65
2022/10/19 08:51:21;;;;;;;13.05;8.70;;;;;;;8.18;93.14;98607.88;5093718;28;20198;-64
2022/10/19 08:54:01;;;;;;;14.32;8.63;;;;;;;7.97;93.38;98588.69;5092286;28;20055;-66
2022/10/19 08:56:33;;;;;;;13.88;8.68;;;;;;;8.22;93.03;98603.44;5101188;28;20028;-64
2022/10/19 08:59:39;;;;;;;11.90;8.40;;;;;;;8.10;93.02;98579.72;5085523;28;20032;-65
2022/10/19 09:02:42;;;;;;;13.55;9.45;;;;;;;8.19;92.93;98600.97;5104407;28;20032;-66
2022/10/19 09:05:20;;;;;;;12.65;9.23;;;;;;;8.20;92.22;98593.19;5086188;28;20026;-64
2022/10/19 09:07:49;;;;;;;11.75;9.25;;;;;;;8.28;91.34;98587.81;5105097;28;20030;-65
2022/10/19 09:10:15;;;;;;;15.30;8.57;;;;;;;8.38;91.31;98594.38;5086132;28;20321;-64
2022/10/19 09:12:52;;;;;;;13.57;8.43;;;;;;;8.24;91.37;98583.63;5099153;28;20047;-65
2022/10/19 09:15:24;;;;;;;10.75;8.30;;;;;;;8.49;90.63;98604.38;5093700;28;20074;-65
2022/10/19 09:17:49;;;;;;;9.27;6.88;;;;;;;8.36;91.25;98603.03;5083468;28;20194;-65
2022/10/19 09:20:17;;;;;;;11.75;8.55;;;;;;;8.30;90.57;98604.91;5086868;28;20032;-64
2022/10/19 09:22:43;;;;;;;10.60;8.32;;;;;;;8.47;91.45;98601.03;5098468;28;20055;-64
2022/10/19 09:25:17;;;;;;;9.82;7.43;;;;;;;8.26;91.33;98610.22;5102325;28;20032;-65
2022/10/19 09:27:46;;;;;;;13.43;8.68;;;;;;;8.43;91.47;98602.81;5090287;28;20028;-65
2022/10/19 09:30:21;;;;;;;12.40;7.50;;;;;;;8.42;91.49;98595.13;5094670;28;20087;-66
2022/10/19 09:32:50;;;;;;;8.40;6.93;;;;;;;8.63;90.41;98606.56;5101063;28;20059;-66
2022/10/19 09:35:24;;;;;;;8.95;6.22;;;;;;;8.58;90.65;98587.78;5101959;28;20055;-66
2022/10/19 09:37:51;;;;;;;9.07;5.80;;;;;;;8.63;90.02;98609.13;5085396;28;20025;-65
2022/10/19 09:40:20;;;;;;;7.22;5.85;;;;;;;8.70;89.49;98604.63;5103191;28;20095;-65
2022/10/19 09:42:49;;;;;;;7.10;5.63;;;;;;;8.64;89.15;98608.25;5089153;28;20239;-66
2022/10/19 09:45:27;;;;;;;11.07;4.70;;;;;;;8.69;87.78;98602.94;5093092;28;20371;-66
2022/10/19 09:47:53;;;;;;;7.25;3.50;;;;;;;8.46;87.98;98615.66;5095844;28;20182;-66
2022/10/19 09:50:21;;;;;;;4.63;3.88;;;;;;;8.42;87.37;98608.88;5085529;28;20012;-65
2022/10/19 09:52:52;;;;;;;7.55;4.65;;;;;;;8.53;88.45;98607.72;5095491;28;20024;-66
2022/10/19 09:55:34;;;;;;;6.38;4.70;;;;;;;8.68;87.99;98620.16;5092784;28;20036;-65
2022/10/19 09:58:14;;;;;;;7.63;4.75;;;;;;;8.70;87.77;98622.69;5095520;28;20059;-65
2022/10/19 10:00:46;;;;;;;9.40;5.78;;;;;;;8.68;87.22;98619.31;5095373;28;20241;-65
2022/10/19 10:03:24;;;;;;;;;;;;;;;8.77;88.45;98622.44;5091936;28;20331;-64
2022/10/19 10:05:50;;;;;;;9.52;5.40;;;;;;;8.89;87.56;98616.06;5090818;28;20013;-65
2022/10/19 10:08:21;;;;;;;6.38;5.35;;;;;;;8.90;87.66;98604.81;5095129;28;20051;-65
2022/10/19 10:10:58;;;;;;;5.00;4.50;;;;;;;8.63;87.61;98603.97;5095142;28;20032;-65
2022/10/19 10:13:26;;;;;;;6.57;4.55;;;;;;;8.58;86.92;98619.59;5092259;28;20312;-65
2022/10/19 10:16:02;;;;;;;7.00;4.65;;;;;;;8.57;88.83;98622.22;5094238;28;20281;-66
2022/10/19 10:18:28;;;;;;;6.68;5.13;;;;;;;8.42;88.90;98616.63;5091711;28;20040;-64
2022/10/19 10:21:01;;;;;;;6.18;5.13;;;;;;;8.48;90.04;98627.66;5083411;28;20020;-66
2022/10/19 10:23:31;;;;;;;5.72;5.15;;;;;;;8.27;89.74;98614.50;5092243;28;20025;-65
2022/10/19 10:25:58;;;;;;;6.15;5.25;;;;;;;8.40;89.38;98617.53;5085382;28;20088;-66
2022/10/19 10:28:27;;;;;;;6.85;6.13;;;;;;;8.36;90.42;98595.31;5085060;28;20031;-64
2022/10/19 10:31:13;;;;;;;7.47;5.95;;;;;;;8.57;89.54;98617.06;5093138;28;20031;-65
2022/10/19 10:33:40;;;;;;;8.65;5.55;;;;;;;8.64;89.55;98610.81;5099084;28;20043;-66
2022/10/19 10:36:10;;;;;;;5.75;4.47;;;;;;;8.55;89.44;98624.88;5094658;28;20044;-66
2022/10/19 10:38:45;;;;;;;4.90;4.40;;;;;;;8.49;88.69;98616.44;5076646;28;20024;-66
2022/10/19 10:41:16;;;;;;;5.60;4.95;;;;;;;8.60;88.74;98624.72;5092452;28;20028;-66
2022/10/19 10:43:53;;;;;;;5.38;4.68;;;;;;;8.57;88.50;98622.22;5100606;28;20032;-65
2022/10/19 10:46:23;;;;;;;8.18;5.18;;;;;;;8.42;88.54;98610.59;5084396;28;20091;-66
2022/10/19 10:48:58;;;;;;;6.53;5.03;;;;;;;8.65;89.53;98620.28;5097699;28;20040;-65
2022/10/19 10:51:46;;;;;;;6.57;5.20;;;;;;;8.64;88.45;98618.56;5102906;28;20028;-66
2022/10/19 10:54:31;;;;;;;7.18;5.32;;;;;;;8.67;89.49;98618.47;5094180;28;20024;-65
2022/10/19 10:57:11;;;;;;;4.60;4.20;;;;;;;8.71;88.22;98620.06;5082516;28;20035;-65
2022/10/19 10:59:48;;;;;;;5.75;4.40;;;;;;;8.63;88.88;98616.88;5087021;28;20020;-65
2022/10/19 11:02:13;;;;;;;5.20;4.35;;;;;;;8.43;88.48;98604.56;5094256;28;20109;-65
2022/10/19 11:04:45;;;;;;;7.43;4.95;;;;;;;8.36;88.84;98579.84;5082883;28;20317;-65
2022/10/19 11:07:19;;;;;;;;;;;;;;;8.59;88.36;98594.63;5100982;28;20032;-65
2022/10/19 11:09:53;;;;;;;7.22;5.45;;;;;;;8.69;88.27;98588.28;5089258;28;20105;-65
2022/10/19 11:12:30;;;;;;;8.38;5.00;;;;;;;8.70;88.15;98587.41;5088978;28;20072;-65
2022/10/19 11:15:10;;;;;;;7.55;5.38;;;;;;;8.62;88.00;98572.16;5096356;28;20044;-64
2022/10/19 11:17:42;;;;;;;6.82;4.80;;;;;;;8.56;87.77;98568.91;5102961;28;20047;-65
2022/10/19 11:20:15;;;;;;;7.93;4.72;;;;;;;8.89;87.26;98576.47;5102952;28;20020;-65
2022/10/19 11:23:20;;;;;;;5.80;4.20;;;;;;;8.59;87.66;98573.97;5097489;28;20027;-66
2022/10/19 11:26:01;;;;;;;8.57;4.65;;;;;;;8.64;86.32;98590.19;5012055;28;20266;-66
2022/10/19 11:28:58;;;;;;;4.97;4.03;;;;;;;8.65;87.18;98584.13;5101822;28;20324;-65
2022/10/19 11:31:44;;;;;;;5.10;4.60;;;;;;;8.58;86.53;98572.28;5083738;28;20099;-65
2022/10/19 11:34:13;;;;;;;5.72;4.93;;;;;;;8.75;86.34;98584.66;5099955;28;20358;-65
2022/10/19 11:36:41;;;;;;;5.13;4.50;;;;;;;8.70;86.03;98587.41;5102587;28;20047;-66
2022/10/19 11:39:31;;;;;;;5.10;4.43;;;;;;;8.71;86.79;98577.94;5094542;28;20074;-65
2022/10/19 11:42:01;;;;;;;5.43;4.55;;;;;;;8.69;86.65;98566.78;5089391;28;20083;-64
2022/10/19 11:44:35;;;;;;;4.90;4.40;;;;;;;8.83;86.16;98585.25;5100180;28;20024;-65
2022/10/19 11:47:16;;;;;;;4.43;4.03;;;;;;;8.61;85.49;98592.88;5082440;28;20099;-65
2022/10/19 11:50:02;;;;;;;5.43;3.90;;;;;;;8.74;85.90;98581.25;5082554;28;20070;-65
2022/10/19 11:52:47;;;;;;;5.10;3.72;;;;;;;8.79;84.60;98574.22;5101908;28;20051;-65
2022/10/19 11:55:22;;;;;;;6.50;3.90;;;;;;;8.97;85.25;98592.56;5084143;28;20087;-65